Mia-s — V2EI7 — position and weather

sailwx.info

Track history (hours):
 
Tides and Currents Weather Stations Pressure Air Temp Water Temp Dewpoint Dewpoint Depression Visibility Wind Speed Wind Dir Waves Ship Positions

Mia-s

Last reported at 2016-Feb-05 19:22 UTC. Time now 2016-Feb-08 03:58 UTC.
Position N 39°50' E 023°37'.

Length 190 m; draft 6.4 m.

Type: Cargo ship. MMSI: 305442000.

Date/timePositionNaut miles runAvg speedWind from/ knotsBaromVisibWave heightAir tempDewpointWater temp
2016-Feb-05 19:22N 39°50' E 023°37'20 7.0
2016-Feb-05 16:33N 39°50' E 024°02'9 9.1
2016-Feb-05 15:34N 39°43' E 024°11'31 0.7
2016-Feb-03 16:12N 39°19' E 024°37'1 1.8
2016-Feb-03 15:25N 39°19' E 024°39'2 1.8
2016-Feb-03 14:34N 39°18' E 024°40'2 1.8
2016-Feb-03 13:34N 39°16' E 024°42'2 1.8
2016-Feb-03 12:33N 39°15' E 024°43'2 1.6
2016-Feb-03 11:34N 39°14' E 024°44'8 7.5
2016-Feb-03 10:34N 39°12' E 024°54'5 4.6
2016-Feb-03 09:26N 39°09' E 024°59'5 1.0
2016-Feb-03 04:29N 39°04' E 025°02'1 0.8
2016-Feb-03 03:33N 39°04' E 025°02'1 0.6
2016-Feb-03 01:13N 39°03' E 025°03'0 0.7
2016-Feb-03 00:33N 39°02' E 025°04'1 0.6
2016-Feb-02 23:33N 39°02' E 025°04'1 0.8
2016-Feb-02 22:34N 39°01' E 025°04'17 1.9
2016-Feb-02 13:17N 39°17' E 025°14'  
Track history (hours):
 
Tides and Currents Weather Stations Pressure Air Temp Water Temp Dewpoint Dewpoint Depression Visibility Wind Speed Wind Dir Waves Ship Positions

Mia-s

Last reported at 2016-Feb-05 19:22 UTC. Time now 2016-Feb-08 03:58 UTC.
Position N 39°50' E 023°37'.

Length 190 m; draft 6.4 m.

Type: Cargo ship. MMSI: 305442000.

Date/timePositionNaut miles runAvg speedWind from/ knotsBaromVisibWave heightAir tempDewpointWater temp
2016-Feb-05 19:22N 39°50' E 023°37'20 7.0
2016-Feb-05 16:33N 39°50' E 024°02'9 9.1
2016-Feb-05 15:34N 39°43' E 024°11'31 0.7
2016-Feb-03 16:12N 39°19' E 024°37'1 1.8
2016-Feb-03 15:25N 39°19' E 024°39'2 1.8
2016-Feb-03 14:34N 39°18' E 024°40'2 1.8
2016-Feb-03 13:34N 39°16' E 024°42'2 1.8
2016-Feb-03 12:33N 39°15' E 024°43'2 1.6
2016-Feb-03 11:34N 39°14' E 024°44'8 7.5
2016-Feb-03 10:34N 39°12' E 024°54'5 4.6
2016-Feb-03 09:26N 39°09' E 024°59'5 1.0
2016-Feb-03 04:29N 39°04' E 025°02'1 0.8
2016-Feb-03 03:33N 39°04' E 025°02'1 0.6
2016-Feb-03 01:13N 39°03' E 025°03'0 0.7
2016-Feb-03 00:33N 39°02' E 025°04'1 0.6
2016-Feb-02 23:33N 39°02' E 025°04'1 0.8
2016-Feb-02 22:34N 39°01' E 025°04'17 1.9
2016-Feb-02 13:17N 39°17' E 025°14'  

Dump ship's entire track history